• Join FlightAware (Why Join?)
  • Login
  • US Flag 
05:09AM EDT


 

Airport Tracker/Info


-or-


 

Live Flight TrackerFlight Track Log ✈ N960DL ✈ 23-Apr-2013 ✈ KATL - KMSY

Flight Track Log - Related Links

Times and Time Zones

All times are in EDT time to prevent confusion due to time zone crossing. See the N960DL flight status page for this flight to view local times or setup timezone preferences in your user account.

Time Position Orientation Groundspeed Altitude Reporting Facility
EDT Latitude Longitude Course Direction KTS MPH feet Rate Location/Type
10:09AM 33.6500 -84.3833 234° Southwest 155 178 2,400  Level Atlanta TRACON
10:10AM 33.6667 -84.3167 73° East 237 273 4,100 2,340 Climbing Atlanta TRACON
10:11AM 33.7333 -84.2833 23° Northeast 280 322 7,100 2,700 Climbing Atlanta TRACON
10:12AM 33.8001 -84.3531 270° West  Level FlightAware Approximate
10:12AM 33.8000 -84.3000 348° North 298 343 9,300  Level Atlanta TRACON
10:13AM 33.8001 -84.4872 270° West  Level FlightAware Approximate
10:14AM 33.7755 -84.6127 234° Southwest  Level FlightAware Approximate
10:14AM 33.8081 -84.5064 273° West 315 362 13,300  Level Atlanta Center
10:15AM 33.7093 -84.7205 234° Southwest  Level FlightAware Approximate
10:15AM 33.7908 -84.6236 260° West 356 410 15,600  Level Atlanta Center
10:16AM 33.7214 -84.7306 232° Southwest 370 426 17,500 2,100 Climbing Atlanta Center
10:17AM 33.6478 -84.8397 231° Southwest 403 464 19,900 2,400 Climbing Atlanta Center
10:18AM 33.5967 -84.9492 241° Southwest 418 481 22,400 1,920 Climbing Atlanta Center
10:19AM 33.5436 -85.0681 242° Southwest 418 481 23,800 780 Climbing Atlanta Center
10:20AM 33.4819 -85.2044 242° Southwest 418 481 24,000 60 Climbing Atlanta Center
10:21AM 33.4514 -85.3383 255° West 418 481 24,000  Level Atlanta Center
10:22AM 33.4269 -85.4725 258° West 418 481 24,000  Level Atlanta Center
10:23AM 33.3981 -85.6064 256° West 413 475 24,000  Level Atlanta Center
10:24AM 33.3714 -85.7428 257° West 413 475 24,000  Level Atlanta Center
10:25AM 33.3364 -85.8514 249° West 413 475 24,000  Level Atlanta Center
10:26AM 33.2344 -85.9586 221° Southwest 408 470 24,000  Level Atlanta Center
10:27AM 33.1433 -86.0508 220° Southwest 419 482 24,000  Level Atlanta Center
10:28AM 33.0519 -86.1453 221° Southwest 424 488 24,000  Level Atlanta Center
10:29AM 32.9586 -86.2297 217° Southwest 430 495 24,000  Level Atlanta Center
10:30AM 32.8672 -86.3214 220° Southwest 435 501 24,000  Level Atlanta Center
10:31AM 32.7717 -86.4153 220° Southwest 440 506 24,000  Level Atlanta Center
10:32AM 32.6822 -86.5042 220° Southwest 440 506 24,000  Level Atlanta Center
10:33AM 32.5883 -86.5953 219° Southwest 440 506 24,000  Level Atlanta Center
10:34AM 32.5161 -86.6647 219° Southwest 435 501 24,000  Level Atlanta Center
10:35AM 32.4031 -86.7769 220° Southwest 440 506 24,000  Level Atlanta Center
10:36AM 32.3069 -86.8675 219° Southwest 440 506 24,000  Level Atlanta Center
10:37AM 32.2131 -86.9600 220° Southwest 440 506 24,000  Level Atlanta Center
10:38AM 32.1192 -87.0478 218° Southwest 434 499 24,000  Level Atlanta Center
10:39AM 32.0269 -87.1403 220° Southwest 434 499 24,000  Level Atlanta Center
10:40AM 31.9350 -87.2275 219° Southwest 434 499 24,000  Level Atlanta Center
10:41AM 31.8431 -87.3147 219° Southwest 439 505 24,000  Level Atlanta Center
10:44AM 31.6117 -87.5292 218° Southwest 435 501 24,000  Level Houston Center
10:45AM 31.5192 -87.6164 219° Southwest 430 495 24,000  Level Houston Center
10:46AM 31.4267 -87.7044 219° Southwest 429 494 24,000  Level Houston Center
10:47AM 31.3347 -87.7908 219° Southwest 425 489 24,000  Level Houston Center
10:48AM 31.2431 -87.8778 219° Southwest 424 488 24,000  Level Houston Center
10:49AM 31.1317 -87.9819 219° Southwest 425 489 24,000  Level Houston Center
10:50AM 31.0372 -88.0683 218° Southwest 425 489 24,000  Level Houston Center
10:51AM 30.9394 -88.1578 218° Southwest 432 497 24,000  Level Houston Center
10:52AM 30.8439 -88.2475 219° Southwest 433 498 24,000  Level Houston Center
10:53AM 30.7506 -88.3342 219° Southwest 428 493 24,000  Level Houston Center
10:54AM 30.6828 -88.4453 235° Southwest 427 491 24,000  Level Houston Center
10:55AM 30.6311 -88.5653 243° Southwest 419 482 24,000  Level Houston Center
10:56AM 30.5783 -88.6844 243° Southwest 416 479 24,000  Level Houston Center
10:57AM 30.5253 -88.8025 242° Southwest 414 476 24,000 -360 Level Houston Center
10:58AM 30.4631 -88.9467 243° Southwest 416 479 23,300 -840 Descending Houston Center
10:59AM 30.4100 -89.0647 242° Southwest 414 476 22,300 -1,380 Descending Houston Center
11:00AM 30.3650 -89.1831 246° West 407 468 20,500 -2,160 Descending Houston Center
11:01AM 30.3206 -89.3150 249° West 392 451 18,000 -2,100 Descending Houston Center
11:02AM 30.2806 -89.4164 245° Southwest 394 453 16,200 -2,160 Descending Houston Center
11:03AM 30.2500 -89.5064 249° West 379 436 14,300 -2,280 Descending Houston Center
11:03AM 30.2372 -89.5272 235° Southwest 387 445 13,900 -2,940 Descending Houston Center
11:04AM 30.2119 -89.6067 250° West 368 423 11,700 -2,760 Descending Houston Center
11:04AM 30.1906 -89.6586 245° Southwest 376 433 11,100 -1,140 Descending Houston Center
11:05AM 30.1864 -89.7186 265° West 351 404 10,600 -900 Descending Houston Center
11:05AM 30.1733 -89.7656 252° West 353 406 10,200 -840 Descending Houston Center
11:06AM 30.1672 -89.8253 263° West 300 345 9,700 -1,200 Descending Houston Center
11:06AM 30.1583 -89.8617 254° West 326 375 9,000 -1,620 Descending Houston Center
11:07AM 30.1567 -89.8883 266° West 291 335 8,600 -1,500 Descending Houston Center
11:07AM 30.1411 -89.9514 254° West 307 353 7,500 -1,440 Descending Houston Center
11:08AM 30.1242 -90.0500 259° West 297 342 6,000 -1,920 Descending Houston Center
11:10AM 30.1169 -90.1425 265° West 238 274 3,400 -2,340 Descending Houston Center